Skip to main content

NOAA/GLERL Met Station at Muskegon, MI

Previous 5 days (top of hour only)
See also Previous 3 Hours (2 minute increments)
Jump down to Data
Switch to [English][Metric]
Zoom: Click and drag, Pan: shift-click and drag, Unzoom: double-click, Unzoom All






Note: Speed = mean wind during 2-minute period at top of hour,
Gust = max wind during 2-minute period at top of hour,
Peak = max wind during entire hour.
• See also 5-day windrose plot


NOAA/GLERL Met Station at Muskegon, MI

Previous 5 days (top of hour only)
See also Previous 3 Hours (2 minute increments)
Jump up to Graphs
Switch to [English][Metric]
                  Wind  Wind  Wind   Air   Dew   Rel     Sta   PAR
                   Spd   Gst   Dir  Temp    Pt   Hum    Pres uE/m2/
YYYY-MM-DD   EST   kts   kts   deg     F     F     %   in Hg   sec
2017-11-19 14:00  20.2  22.6   311  31.3  22.4  69.5   29.34   166
2017-11-19 13:00  18.9  21.6   337  31.6  21.6  66.0   29.33   143
2017-11-19 12:00  18.1  21.2   320  31.6  22.1  67.4   29.32   179
2017-11-19 11:00  19.8  22.9   328  32.4  23.2  68.8   29.32   176
2017-11-19 10:00  20.0  23.7   331  32.7  23.2  67.8   29.30   105
2017-11-19 09:00  21.0  24.3   322  33.6  24.9  70.2   29.28    29
2017-11-19 08:00  23.7  26.2   333  34.3  25.7  70.5   29.25     6
2017-11-19 07:00  20.0  22.6   334  34.9  27.5  74.1   29.23     2
2017-11-19 06:00  20.2  25.3   343  36.1  28.0  71.9   29.22     2
2017-11-19 05:00  26.2  29.7   344  36.9  27.3  68.1   29.18     2
2017-11-19 04:00  22.0  25.5   345  37.4  29.2  72.1   29.18     2
2017-11-19 03:00  25.3  27.6   349  37.4  29.8  73.8   29.16     2
2017-11-19 02:00   9.7  13.8    28  34.3  31.4  88.9   29.13     2
2017-11-19 01:00  28.4  32.1   354  36.1  33.1  88.4   29.12     2
2017-11-19 00:00  18.7  24.3     3  37.0  32.1  82.0   29.09     2
2017-11-18 23:00  24.1  29.5     3  37.8  33.7  85.1   29.06     2
2017-11-18 22:00  16.1  19.6    20  37.6  34.4  88.2   29.02     2
2017-11-18 21:00  18.1  22.7     7  39.7  34.1  79.9   28.98     2
2017-11-18 20:00  20.2  26.0     7  40.6  33.3  74.7   28.95     2
2017-11-18 19:00  18.5  24.1     1  40.6  37.1  87.2   28.93     2
2017-11-18 18:00  13.2  19.2    13  40.3  37.9  91.1   28.90     2
2017-11-18 17:00  13.4  16.5    16  40.5  38.2  91.4   28.88    11
2017-11-18 16:00  18.5  22.6    22  41.0  38.1  89.4   28.84    31
2017-11-18 15:00  13.8  18.1     8  41.2  39.4  93.4   28.83    65
2017-11-18 14:00   7.4   9.3    27  40.5  39.5  96.2   28.81    94
2017-11-18 13:00  10.3  13.6    37  39.9  38.7  95.3   28.81   164
2017-11-18 12:00  12.2  14.8    24  39.7  37.9  92.9   28.85   116
2017-11-18 11:00   7.0   9.3     4  41.0  39.4  93.8   28.87    58
2017-11-18 10:00   1.9   2.7     9  41.2  39.2  92.6   28.88    28
2017-11-18 09:00   2.7   3.7    26  41.2  39.2  92.7   28.89    37
2017-11-18 08:00   5.4   7.2    69  41.2  39.1  92.2   28.87    21
2017-11-18 07:00   6.6   8.7    39  41.4  39.2  91.9   28.88     2
2017-11-18 06:00   9.1  10.3    26  42.1  40.1  92.6   28.90     2
2017-11-18 05:00   8.9  10.7    20  43.5  40.5  89.1   28.90     2
2017-11-18 04:00  14.0  14.6   330  44.4  41.8  90.4   28.90     2
2017-11-18 03:00  11.7  12.2   307  45.3  42.9  91.2   28.91     2
2017-11-18 02:00  16.5  18.3   275  46.0  44.6  94.6   28.94     2
2017-11-18 01:00  18.7  20.0   236  45.7  44.7  96.5   28.95     2
2017-11-18 00:00  21.6  23.3   228  45.3  44.3  96.1   28.98     2
2017-11-17 23:00  16.9  18.7   199  43.7  43.1  97.8   29.00     2
2017-11-17 22:00  11.3  12.4   175  40.8  40.1  97.3   29.02     2
2017-11-17 21:00   2.3   4.5   167  41.5  37.3  84.6   29.05     2
2017-11-17 20:00  12.8  18.5   159  41.4  36.2  81.7   29.05     2
2017-11-17 19:00  13.2  18.9   159  40.8  36.4  83.9   29.10     2
2017-11-17 18:00  11.3  15.4   161  40.5  36.1  84.4   29.16     2
2017-11-17 17:00  13.0  17.1   167  43.3  31.2  61.9   29.19    11
2017-11-17 16:00   8.9  13.0   155  43.2  31.4  62.8   29.22    94
2017-11-17 15:00   5.1   8.4   158  41.9  31.2  65.5   29.27   222
2017-11-17 14:00   9.5  12.4   164  41.2  30.7  65.9   29.29   378
2017-11-17 13:00  11.3  16.7   161  39.2  30.5  70.6   29.34   483
2017-11-17 12:00   8.4  11.9   158  37.6  30.9  76.7   29.39   318
2017-11-17 11:00   6.6   9.9   163  36.3  30.5  79.1   29.45   187
2017-11-17 10:00  10.7  15.2   156  35.8  30.1  79.7   29.46   240
2017-11-17 09:00  10.7  13.8   150  34.7  29.7  81.8   29.49   255
2017-11-17 08:00  11.7  15.0   164  34.5  29.7  82.2   29.51    29
2017-11-17 07:00   9.1  13.0   170  33.3  28.5  82.3   29.54     2
2017-11-17 06:00  11.5  16.1   135  32.2  27.6  83.0   29.54     2
2017-11-17 05:00   9.5  11.1   132  31.6  27.1  83.0   29.55     2
2017-11-17 04:00  10.1  11.5   132  31.5  26.5  81.7   29.59     2
2017-11-17 03:00   9.7  12.8   127  31.5  26.6  82.1   29.59     2
2017-11-17 02:00   7.4   9.3   121  31.5  26.5  81.6   29.60     2
2017-11-17 01:00   9.7  12.1   127  31.1  26.9  84.1   29.59     2
2017-11-17 00:00   7.0   8.6   115  32.2  26.7  79.9   29.60     2
2017-11-16 23:00   5.6   7.0    88  32.4  27.8  83.1   29.61     2
2017-11-16 22:00   5.6   7.0    71  31.8  27.8  84.8   29.63     2
2017-11-16 21:00   6.6   7.2    49  31.6  28.0  86.2   29.63     2
2017-11-16 20:00   7.0   7.6    20  32.2  29.5  89.8   29.62     2
2017-11-16 19:00   5.4   6.2    37  33.4  30.3  88.0   29.60     2
2017-11-16 18:00   5.4   6.4    13  35.1  30.6  83.6   29.59     2
2017-11-16 17:00   7.0   9.1     2  36.7  30.2  77.2   29.57    83
2017-11-16 16:00  10.7  14.6    19  37.6  31.6  78.8   29.56   263
2017-11-16 15:00  11.3  15.4     2  41.4  33.3  72.6   29.55  1437
2017-11-16 14:00  19.1  21.8   357  38.5  33.9  83.4   29.55  1603
2017-11-16 13:00  19.1  22.7   357  37.6  33.7  85.8   29.55   559
2017-11-16 12:00  18.3  21.8   357  38.3  32.1  78.1   29.53  1675
2017-11-16 11:00  15.0  17.7     2  37.0  31.1  78.8   29.52   471
2017-11-16 10:00  18.7  22.2    10  37.6  30.3  74.6   29.49   191
2017-11-16 09:00  13.2  22.0   358  37.0  28.7  71.4   29.47    63
2017-11-16 08:00  19.6  28.8   351  37.4  28.7  70.4   29.42    15
2017-11-16 07:00  16.9  20.8    11  37.6  26.8  64.7   29.39     2
2017-11-16 06:00  26.6  34.8   352  38.7  30.0  70.7   29.36     2
2017-11-16 05:00  30.5  34.8   339  39.4  32.3  75.6   29.33     2
2017-11-16 04:00  28.6  33.0   348  39.9  32.9  75.7   29.30     2
2017-11-16 03:00  32.1  37.1   338  39.6  33.1  77.3   29.28     2
2017-11-16 02:00  32.3  36.4   325  39.7  34.0  79.7   29.25     2
2017-11-16 01:00  29.9  34.6   330  39.4  33.7  79.8   29.23     2
2017-11-16 00:00  29.9  33.2   317  39.4  34.4  82.1   29.22     2
2017-11-15 23:00  29.5  33.0   317  40.1  35.9  84.8   29.20     2
2017-11-15 22:00  30.1  35.0   311  41.0  36.5  83.8   29.19     2
2017-11-15 21:00  30.7  34.0   303  43.2  38.2  82.4   29.16     2
2017-11-15 20:00  33.4  36.2   305  45.1  39.9  81.5   29.13     2
2017-11-15 19:00  30.9  34.4   317  45.9  40.6  81.6   29.11     2
2017-11-15 18:00  30.7  33.2   327  45.7  42.2  87.6   29.09     2
2017-11-15 17:00  33.2  38.9   326  46.9  42.5  84.3   29.05     6
2017-11-15 16:00  22.7  25.3   305  46.8  45.9  96.9   29.03    18
2017-11-15 15:00  21.4  22.9   288  46.4  45.8  97.9   29.03    72
2017-11-15 14:00  20.6  22.0   260  46.0  45.4  97.7   29.05    42
2017-11-15 13:00  23.7  25.9   245  46.6  45.0  94.2   29.07    92
2017-11-15 12:00  26.2  29.7   224  46.4  45.0  94.7   29.11    71
2017-11-15 11:00  23.9  26.8   219  45.9  45.2  97.6   29.15    60
2017-11-15 10:00  26.0  29.4   216  45.5  45.1  98.3   29.19    42
2017-11-15 09:00  27.0  28.4   204  45.0  43.8  95.5   29.22    24
2017-11-15 08:00  15.9  18.5   181  42.4  39.8  90.3   29.23     6
2017-11-15 07:00  12.1  15.2   173  43.5  39.3  85.0   29.25     2
2017-11-15 06:00  14.6  16.1   178  44.2  40.0  84.8   29.28     2
2017-11-15 05:00  20.8  23.9   198  45.5  42.5  89.0   29.32     2
2017-11-15 04:00   9.5  11.5   189  44.4  39.1  81.4   29.36     2
2017-11-15 03:00  18.5  20.6   187  45.3  38.1  75.5   29.38     2
2017-11-15 02:00  14.8  18.7   170  44.2  37.8  77.7   29.38     2
2017-11-15 01:00  18.7  21.6   183  45.0  37.9  76.1   29.43     2
2017-11-15 00:00  17.3  21.0   186  45.5  39.4  79.0   29.42     2
2017-11-14 23:00  18.1  19.4   189  45.9  37.9  73.5   29.46     2
2017-11-14 22:00  17.1  19.8   186  45.7  38.4  75.5   29.46     2
2017-11-14 21:00  16.5  17.9   182  45.7  37.4  72.4   29.47     2
2017-11-14 20:00  15.7  18.7   180  45.9  36.2  68.8   29.49     2
2017-11-14 19:00  15.4  17.1   184  45.9  37.1  71.3   29.50     2